createdAt,value
2016-02-01T00:00:22.523Z,99.56
2016-02-01T00:01:22.510Z,99.75
2016-02-01T00:02:22.497Z,99.46
2016-02-01T00:03:22.468Z,99.66
2016-02-01T00:04:22.443Z,99.56
2016-02-01T00:05:22.414Z,99.66
2016-02-01T00:06:22.401Z,99.66
2016-02-01T00:07:22.373Z,99.56
2016-02-01T00:08:22.359Z,99.27
2016-02-01T00:09:22.331Z,99.66
2016-02-01T00:10:22.318Z,99.66
2016-02-01T00:11:22.290Z,99.66
2016-02-01T00:12:22.277Z,99.85
2016-02-01T00:13:22.248Z,99.66
2016-02-01T00:14:22.220Z,98.99
2016-02-01T00:15:22.207Z,99.56
2016-02-01T00:16:22.178Z,99.66
2016-02-01T00:17:22.150Z,99.37
2016-02-01T00:18:22.137Z,98.99
2016-02-01T00:19:22.109Z,98.9
2016-02-01T00:20:22.096Z,98.99
2016-02-01T00:21:22.064Z,99.37
2016-02-01T00:22:22.051Z,99.27
2016-02-01T00:23:22.022Z,99.18
2016-02-01T00:24:22.007Z,98.8
2016-02-01T00:25:21.962Z,99.18
2016-02-01T00:26:21.919Z,98.99
2016-02-01T00:27:21.892Z,98.99
2016-02-01T00:28:21.847Z,98.99
2016-02-01T00:29:21.822Z,98.61
2016-02-01T00:30:21.787Z,99.08
2016-02-01T00:31:21.772Z,98.99
2016-02-01T00:32:21.738Z,98.99
2016-02-01T00:33:21.704Z,98.99
2016-02-01T00:34:21.687Z,98.8
2016-02-01T00:35:21.652Z,98.9
2016-02-01T00:36:21.638Z,98.99
2016-02-01T00:37:21.608Z,98.7
2016-02-01T00:38:21.592Z,98.61
2016-02-01T00:39:21.577Z,98.61
2016-02-01T00:40:21.534Z,98.9
2016-02-01T00:41:21.520Z,99.18
2016-02-01T00:42:21.491Z,98.9
2016-02-01T00:43:21.478Z,98.7
2016-02-01T00:44:21.448Z,98.7
2016-02-01T00:45:21.435Z,99.08
2016-02-01T00:46:21.407Z,99.08
2016-02-01T00:47:21.377Z,98.99
2016-02-01T00:48:21.366Z,99.08
2016-02-01T00:49:21.339Z,98.99
2016-02-01T00:50:21.310Z,98.99
2016-02-01T00:51:21.297Z,99.18
2016-02-01T00:52:21.268Z,98.99
2016-02-01T00:53:21.256Z,99.08
2016-02-01T00:54:21.230Z,98.7
2016-02-01T00:55:21.202Z,98.7
2016-02-01T00:56:21.179Z,98.9
2016-02-01T00:57:21.165Z,98.9
2016-02-01T00:58:21.136Z,98.9
2016-02-01T00:59:21.123Z,98.7
2016-02-01T01:00:21.096Z,99.18
2016-02-01T01:01:21.083Z,99.18
2016-02-01T01:02:21.055Z,98.61
2016-02-01T01:03:21.026Z,98.8
2016-02-01T01:04:21.013Z,98.9
2016-02-01T01:05:20.988Z,98.9
2016-02-01T01:06:20.974Z,98.61
2016-02-01T01:07:20.946Z,98.7
2016-02-01T01:08:20.918Z,98.9
2016-02-01T01:09:20.908Z,98.99
2016-02-01T01:10:20.880Z,98.8
2016-02-01T01:11:20.867Z,98.8
2016-02-01T01:12:20.839Z,98.7
2016-02-01T01:13:20.810Z,99.18
2016-02-01T01:14:20.798Z,98.9
2016-02-01T01:15:20.769Z,99.18
2016-02-01T01:16:20.756Z,99.08
2016-02-01T01:17:20.728Z,98.99
2016-02-01T01:18:20.699Z,98.9
2016-02-01T01:19:20.702Z,99.18
2016-02-01T01:20:20.658Z,98.42
2016-02-01T01:21:20.634Z,98.42
2016-02-01T01:22:20.621Z,98.42
2016-02-01T01:23:20.593Z,98.7
2016-02-01T01:24:20.579Z,98.8
2016-02-01T01:25:20.551Z,98.51
2016-02-01T01:26:20.538Z,98.51
2016-02-01T01:27:20.510Z,99.18
2016-02-01T01:28:20.481Z,98.51
2016-02-01T01:29:20.468Z,99.08
2016-02-01T01:30:20.441Z,98.99
2016-02-01T01:31:20.428Z,98.51
2016-02-01T01:32:20.399Z,98.9
2016-02-01T01:33:20.386Z,98.8
2016-02-01T01:34:20.359Z,98.8
2016-02-01T01:35:20.330Z,98.8
2016-02-01T01:36:20.317Z,98.51
2016-02-01T01:37:20.304Z,98.61
2016-02-01T01:38:20.276Z,98.03
2016-02-01T01:39:20.248Z,98.7
2016-02-01T01:40:20.235Z,98.61
2016-02-01T01:41:20.210Z,98.8
2016-02-01T01:42:20.196Z,98.51
2016-02-01T01:43:20.168Z,98.9
2016-02-01T01:44:20.140Z,98.61
2016-02-01T01:45:20.126Z,98.51
2016-02-01T01:46:20.098Z,98.8
2016-02-01T01:47:20.085Z,98.61
2016-02-01T01:48:20.057Z,99.08
2016-02-01T01:49:20.028Z,98.9
2016-02-01T01:50:20.018Z,98.99
2016-02-01T01:51:20.006Z,98.9
2016-02-01T01:52:19.977Z,98.8
2016-02-01T01:53:19.949Z,99.18
2016-02-01T01:54:19.919Z,98.7
2016-02-01T01:55:19.906Z,98.7
2016-02-01T01:56:19.877Z,98.8
2016-02-01T01:57:19.864Z,98.42
2016-02-01T01:58:19.836Z,98.99
2016-02-01T01:59:19.812Z,98.99
2016-02-01T02:00:19.799Z,98.7
2016-02-01T02:01:19.772Z,98.7
2016-02-01T02:02:19.759Z,98.7
2016-02-01T02:03:19.730Z,98.7
2016-02-01T02:04:19.702Z,98.7
2016-02-01T02:05:19.694Z,98.8
2016-02-01T02:06:19.667Z,99.08
2016-02-01T02:07:19.639Z,98.8
2016-02-01T02:08:19.626Z,98.8
2016-02-01T02:09:19.597Z,98.8
2016-02-01T02:10:19.569Z,99.08
2016-02-01T02:11:19.557Z,99.75
2016-02-01T02:12:19.529Z,99.66
2016-02-01T02:13:19.517Z,98.8
2016-02-01T02:14:19.487Z,99.56
2016-02-01T02:15:19.476Z,99.71
2016-02-01T02:16:19.448Z,99.66
2016-02-01T02:17:19.435Z,99.13
2016-02-01T02:18:19.407Z,99.56
2016-02-01T02:19:19.377Z,99.9
2016-02-01T02:20:19.365Z,99.71
2016-02-01T02:21:19.337Z,99.71
2016-02-01T02:22:19.339Z,99.71
2016-02-01T02:23:19.295Z,99.08
2016-02-01T02:24:19.283Z,99.61
2016-02-01T02:25:19.254Z,99.52
2016-02-01T02:26:19.226Z,99.56
2016-02-01T02:27:19.214Z,99.52
2016-02-01T02:28:19.185Z,99.13
2016-02-01T02:29:19.172Z,99.71
2016-02-01T02:30:19.147Z,99.61
2016-02-01T02:31:19.133Z,99.52
2016-02-01T02:32:19.105Z,99.52
2016-02-01T02:33:19.077Z,99.71
2016-02-01T02:34:19.063Z,99.32
2016-02-01T02:35:19.036Z,99.71
2016-02-01T02:36:19.023Z,99.13
2016-02-01T02:37:18.994Z,99.71
2016-02-01T02:38:18.981Z,99.71
2016-02-01T02:39:18.958Z,99.42
2016-02-01T02:40:18.960Z,99.13
2016-02-01T02:41:18.917Z,99.61
2016-02-01T02:42:18.888Z,99.52
2016-02-01T02:43:18.875Z,99.71
2016-02-01T02:44:18.847Z,99.23
2016-02-01T02:45:18.834Z,99.23
2016-02-01T02:46:18.808Z,99.42
2016-02-01T02:47:18.779Z,99.32
2016-02-01T02:48:18.813Z,99.61
2016-02-01T02:49:18.738Z,99.04
2016-02-01T02:50:18.725Z,99.42
2016-02-01T02:51:18.691Z,98.85
2016-02-01T02:52:18.678Z,99.42
2016-02-01T02:53:18.652Z,99.42
2016-02-01T02:54:18.639Z,99.52
2016-02-01T02:55:18.612Z,99.61
2016-02-01T02:56:18.599Z,99.32
2016-02-01T02:57:18.571Z,99.23
2016-02-01T02:58:18.542Z,99.13
2016-02-01T02:59:18.529Z,99.71
2016-02-01T03:00:18.502Z,99.61
2016-02-01T03:01:18.489Z,99.42
2016-02-01T03:02:18.458Z,99.61
2016-02-01T03:03:18.445Z,99.71
2016-02-01T03:04:18.419Z,99.61
2016-02-01T03:05:18.390Z,99.9
2016-02-01T03:06:18.378Z,99.71
2016-02-01T03:07:18.350Z,99.9
2016-02-01T03:08:18.336Z,99.71
2016-02-01T03:09:18.308Z,99.32
2016-02-01T03:10:18.296Z,99.42
2016-02-01T03:11:18.267Z,99.13
2016-02-01T03:12:18.239Z,98.85
2016-02-01T03:13:18.226Z,98.85
2016-02-01T03:14:18.198Z,98.94
2016-02-01T03:15:18.189Z,98.94
2016-02-01T03:16:18.159Z,99.23
2016-02-01T03:17:18.146Z,99.04
2016-02-01T03:18:18.117Z,99.13
2016-02-01T03:19:18.089Z,98.85
2016-02-01T03:20:18.079Z,99.13
2016-02-01T03:21:18.050Z,99.04
2016-02-01T03:22:18.038Z,98.85
2016-02-01T03:23:18.008Z,99.13
2016-02-01T03:24:17.996Z,98.85
2016-02-01T03:25:17.971Z,99.13
2016-02-01T03:26:17.958Z,98.85
2016-02-01T03:27:17.930Z,99.13
2016-02-01T03:28:17.949Z,98.85
2016-02-01T03:29:17.890Z,99.13
2016-02-01T03:30:17.861Z,99.04
2016-02-01T03:31:17.849Z,98.85
2016-02-01T03:32:17.819Z,99.8
2016-02-01T03:33:17.791Z,99.32
2016-02-01T03:34:17.779Z,99.71
2016-02-01T03:35:17.750Z,99.13
2016-02-01T03:36:17.738Z,99.04
2016-02-01T03:37:17.714Z,98.85
2016-02-01T03:38:17.686Z,98.85
2016-02-01T03:39:17.673Z,99.13
2016-02-01T03:40:17.647Z,99.13
2016-02-01T03:41:17.634Z,99.04
2016-02-01T03:42:17.606Z,98.94
2016-02-01T03:43:17.577Z,98.85
2016-02-01T03:44:17.564Z,98.94
2016-02-01T03:45:17.536Z,98.94
2016-02-01T03:46:17.523Z,99.04
2016-02-01T03:47:17.494Z,99.23
2016-02-01T03:48:17.482Z,98.94
2016-02-01T03:49:17.452Z,99.04
2016-02-01T03:50:17.440Z,98.94
2016-02-01T03:51:17.412Z,98.94
2016-02-01T03:52:17.388Z,99.13
2016-02-01T03:53:17.375Z,98.66
2016-02-01T03:54:17.346Z,99.23
2016-02-01T03:55:17.334Z,99.13
2016-02-01T03:56:17.306Z,99.9
2016-02-01T03:57:17.277Z,99.13
2016-02-01T03:58:17.264Z,99.99
2016-02-01T03:59:17.235Z,99.8
2016-02-01T04:00:17.223Z,99.8
2016-02-01T04:01:17.197Z,99.8
2016-02-01T04:02:17.185Z,99.71
2016-02-01T04:03:17.156Z,99.32
2016-02-01T04:04:17.144Z,99.71
2016-02-01T04:05:17.117Z,99.13
2016-02-01T04:06:17.089Z,99.61
2016-02-01T04:07:17.076Z,99.42
2016-02-01T04:08:17.047Z,99.32
2016-02-01T04:09:17.035Z,99.61
2016-02-01T04:10:17.005Z,99.13
2016-02-01T04:11:16.993Z,99.42
2016-02-01T04:12:16.965Z,99.9
2016-02-01T04:13:16.935Z,99.61
2016-02-01T04:14:16.923Z,99.71
2016-02-01T04:15:16.894Z,99.71
2016-02-01T04:16:16.881Z,99.9
2016-02-01T04:17:16.853Z,98.94
2016-02-01T04:18:16.840Z,99.8
2016-02-01T04:19:16.812Z,99.9
2016-02-01T04:20:16.798Z,99.32
2016-02-01T04:21:16.772Z,99.61
2016-02-01T04:22:16.759Z,99.23
2016-02-01T04:23:16.731Z,99.71
2016-02-01T04:24:16.703Z,99.13
2016-02-01T04:25:16.690Z,99.71
2016-02-01T04:26:16.662Z,99.42
2016-02-01T04:27:16.649Z,99.23
2016-02-01T04:28:16.620Z,99.61
2016-02-01T04:29:16.607Z,99.71
2016-02-01T04:30:16.582Z,99.37
2016-02-01T04:31:16.553Z,99.61
2016-02-01T04:32:16.541Z,99.32
2016-02-01T04:33:16.512Z,99.71
2016-02-01T04:34:16.500Z,99.61
2016-02-01T04:35:16.471Z,99.23
2016-02-01T04:36:16.442Z,99.13
2016-02-01T04:37:16.431Z,99.13
2016-02-01T04:38:16.403Z,99.71
2016-02-01T04:39:16.389Z,99.71
2016-02-01T04:40:16.362Z,99.42
2016-02-01T04:41:16.349Z,99.13
2016-02-01T04:42:16.321Z,98.85
2016-02-01T04:43:16.293Z,99.04
2016-02-01T04:44:16.279Z,99.8
2016-02-01T04:45:16.267Z,99.52
2016-02-01T04:46:16.238Z,99.42
2016-02-01T04:47:16.207Z,99.71
2016-02-01T04:48:16.210Z,99.42
2016-02-01T04:49:16.166Z,99.9
2016-02-01T04:50:16.154Z,99.61
2016-02-01T04:51:16.129Z,98.8
2016-02-01T04:52:16.116Z,99.32
2016-02-01T04:53:16.089Z,99.71
2016-02-01T04:54:16.060Z,99.71
2016-02-01T04:55:16.048Z,99.04
2016-02-01T04:56:16.019Z,99.71
2016-02-01T04:57:15.991Z,99.71
2016-02-01T04:58:15.978Z,99.46
2016-02-01T04:59:15.965Z,99.71
2016-02-01T05:00:15.936Z,99.61
2016-02-01T05:01:15.908Z,99.13
2016-02-01T05:02:15.896Z,99.66
2016-02-01T05:03:15.868Z,99.61
2016-02-01T05:04:15.857Z,99.71
2016-02-01T05:05:15.828Z,99.52
2016-02-01T05:06:15.801Z,99.13
2016-02-01T05:07:15.787Z,99.13
2016-02-01T05:08:15.759Z,99.71
2016-02-01T05:09:15.746Z,99.13
2016-02-01T05:10:15.717Z,99.32
2016-02-01T05:11:15.706Z,99.13
2016-02-01T05:12:15.677Z,99.71
2016-02-01T05:13:15.664Z,99.52
2016-02-01T05:14:15.635Z,98.66
2016-02-01T05:15:15.607Z,99.99
2016-02-01T05:16:15.595Z,99.56
2016-02-01T05:17:15.565Z,99.56
2016-02-01T05:18:15.553Z,99.27
2016-02-01T05:19:15.526Z,99.9
2016-02-01T05:20:15.497Z,99.99
2016-02-01T05:21:15.485Z,99.9
2016-02-01T05:22:15.474Z,99.99
2016-02-01T05:23:15.445Z,99.8
2016-02-01T05:24:15.433Z,99.99
2016-02-01T05:25:15.404Z,99.99
2016-02-01T05:26:15.376Z,99.71
2016-02-01T05:27:15.347Z,99.75
2016-02-01T05:28:15.335Z,99.9
2016-02-01T05:29:15.305Z,99.23
2016-02-01T05:30:15.293Z,99.8
2016-02-01T05:31:15.265Z,99.9
2016-02-01T05:32:15.253Z,99.99
2016-02-01T05:33:15.225Z,99.71
2016-02-01T05:34:15.211Z,99.99
2016-02-01T05:35:15.183Z,99.85
2016-02-01T05:36:15.171Z,99.9
2016-02-01T05:37:15.143Z,99.42
2016-02-01T05:38:15.115Z,99.23
2016-02-01T05:39:15.102Z,99.27
2016-02-01T05:40:15.074Z,99.71
2016-02-01T05:41:15.060Z,99.04
2016-02-01T05:42:15.033Z,99.42
2016-02-01T05:43:15.004Z,99.66
2016-02-01T05:44:14.988Z,99.9
2016-02-01T05:45:14.975Z,99.04
2016-02-01T05:46:14.948Z,99.8
2016-02-01T05:47:14.926Z,99.13
2016-02-01T05:48:14.913Z,99.23
2016-02-01T05:49:14.884Z,98.85
2016-02-01T05:50:14.855Z,99.04
2016-02-01T05:51:14.831Z,98.85
2016-02-01T05:52:14.818Z,98.85
2016-02-01T05:53:14.789Z,98.75
2016-02-01T05:54:14.777Z,98.94
2016-02-01T05:55:14.748Z,98.85
2016-02-01T05:56:14.737Z,99.04
2016-02-01T05:57:14.724Z,99.13
2016-02-01T05:58:14.697Z,98.85
2016-02-01T05:59:14.669Z,99.32
2016-02-01T06:00:14.640Z,99.23
2016-02-01T06:01:14.632Z,98.85
2016-02-01T06:02:14.619Z,98.94
2016-02-01T06:03:14.593Z,99.75
2016-02-01T06:04:14.564Z,98.85
2016-02-01T06:05:14.536Z,99.04
2016-02-01T06:06:14.523Z,99.9
2016-02-01T06:07:14.498Z,98.85
2016-02-01T06:08:14.470Z,99.8
2016-02-01T06:09:14.456Z,99.42
2016-02-01T06:10:14.428Z,99.42
2016-02-01T06:11:14.415Z,99.9
2016-02-01T06:12:14.388Z,99.23
2016-02-01T06:13:14.360Z,99.42
2016-02-01T06:14:14.347Z,99.27
2016-02-01T06:15:14.319Z,99.61
2016-02-01T06:16:14.308Z,98.94
2016-02-01T06:17:14.280Z,99.56
2016-02-01T06:18:14.267Z,99.71
2016-02-01T06:19:14.239Z,99.04
2016-02-01T06:20:14.226Z,99.71
2016-02-01T06:21:14.204Z,99.71
2016-02-01T06:22:14.176Z,99.61
2016-02-01T06:23:14.164Z,99.71
2016-02-01T06:24:14.133Z,99.71
2016-02-01T06:25:14.118Z,99.9
2016-02-01T06:26:14.090Z,99.61
2016-02-01T06:27:14.062Z,99.13
2016-02-01T06:28:14.052Z,99.56
2016-02-01T06:29:14.024Z,99.61
2016-02-01T06:30:14.010Z,99.71
2016-02-01T06:31:13.983Z,99.71
2016-02-01T06:32:13.956Z,99.71
2016-02-01T06:33:13.943Z,99.8
2016-02-01T06:34:13.915Z,99.9
2016-02-01T06:35:13.886Z,99.13
2016-02-01T06:36:13.873Z,99.42
2016-02-01T06:37:13.862Z,99.75
2016-02-01T06:38:13.834Z,99.42
2016-02-01T06:39:13.806Z,99.61
2016-02-01T06:40:13.792Z,99.8
2016-02-01T06:41:13.765Z,99.8
2016-02-01T06:42:13.752Z,99.75
2016-02-01T06:43:13.724Z,99.8
2016-02-01T06:44:13.699Z,99.99
2016-02-01T06:45:13.686Z,99.95
2016-02-01T06:46:13.658Z,99.32
2016-02-01T06:47:13.634Z,99.61
2016-02-01T06:48:13.621Z,99.75
2016-02-01T06:49:13.593Z,99.8
2016-02-01T06:50:13.580Z,99.99
2016-02-01T06:51:13.551Z,99.8
2016-02-01T06:52:13.538Z,99.99
2016-02-01T06:53:13.510Z,99.99
2016-02-01T06:54:13.482Z,99.9
2016-02-01T06:55:13.468Z,99.27
2016-02-01T06:56:13.440Z,99.99
2016-02-01T06:57:13.430Z,99.99
2016-02-01T06:58:13.401Z,99.99
2016-02-01T06:59:13.373Z,99.42
2016-02-01T07:00:13.360Z,99.52
2016-02-01T07:01:13.331Z,99.71
2016-02-01T07:02:13.319Z,99.23
2016-02-01T07:03:13.291Z,99.61
2016-02-01T07:04:13.277Z,99.13
2016-02-01T07:05:13.249Z,99.42
2016-02-01T07:06:13.235Z,99.61
2016-02-01T07:07:13.207Z,99.9
2016-02-01T07:08:13.273Z,99.52
2016-02-01T07:09:13.165Z,98.85
2016-02-01T07:10:13.137Z,99.23
2016-02-01T07:11:13.124Z,99.23
2016-02-01T07:12:13.111Z,99.13
2016-02-01T07:13:13.084Z,99.23
2016-02-01T07:14:13.087Z,99.04
2016-02-01T07:15:13.044Z,98.94
2016-02-01T07:16:13.014Z,99.23
2016-02-01T07:17:13.002Z,99.13
2016-02-01T07:18:12.970Z,99.23
2016-02-01T07:19:12.958Z,99.23
2016-02-01T07:20:12.927Z,98.94
2016-02-01T07:21:12.914Z,99.32
2016-02-01T07:22:12.886Z,99.32
2016-02-01T07:23:12.857Z,98.85
2016-02-01T07:24:12.845Z,99.23
2016-02-01T07:25:12.831Z,98.8
2016-02-01T07:26:12.803Z,98.9
2016-02-01T07:27:12.792Z,98.85
2016-02-01T07:28:12.763Z,98.85
2016-02-01T07:29:12.736Z,98.85
2016-02-01T07:30:12.817Z,98.85
2016-02-01T07:31:12.694Z,99.46
2016-02-01T07:32:12.666Z,99.8
2016-02-01T07:33:12.644Z,98.85
2016-02-01T07:34:12.631Z,99.13
2016-02-01T07:35:12.618Z,98.85
2016-02-01T07:36:12.590Z,99.23
2016-02-01T07:37:12.561Z,98.85
2016-02-01T07:38:12.549Z,99.8
2016-02-01T07:39:12.521Z,98.85
2016-02-01T07:40:12.491Z,99.52
2016-02-01T07:41:12.480Z,98.85
2016-02-01T07:42:12.450Z,98.85
2016-02-01T07:43:12.439Z,98.94
2016-02-01T07:44:12.412Z,98.94
2016-02-01T07:45:12.398Z,99.23
2016-02-01T07:46:12.370Z,99.23
2016-02-01T07:47:12.357Z,99.32
2016-02-01T07:48:12.328Z,99.04
2016-02-01T07:49:12.304Z,99.23
2016-02-01T07:50:12.292Z,98.94
2016-02-01T07:51:12.263Z,99.04
2016-02-01T07:52:12.250Z,99.04
2016-02-01T07:53:12.222Z,99.23
2016-02-01T07:54:12.194Z,98.94
2016-02-01T07:55:12.181Z,99.23
2016-02-01T07:56:12.153Z,99.32
2016-02-01T07:57:12.140Z,99.04
2016-02-01T07:58:12.111Z,98.94
2016-02-01T07:59:12.098Z,98.8
2016-02-01T08:00:12.070Z,99.04
2016-02-01T08:01:12.057Z,98.9
2016-02-01T08:02:12.028Z,98.61
2016-02-01T08:03:12.015Z,98.94
2016-02-01T08:04:12.014Z,98.99
2016-02-01T08:05:11.971Z,99.13
2016-02-01T08:06:11.943Z,99.13
2016-02-01T08:07:11.918Z,99.18
2016-02-01T08:08:11.905Z,98.85
2016-02-01T08:09:11.877Z,99.04
2016-02-01T08:10:11.865Z,98.94
2016-02-01T08:11:11.836Z,99.04
2016-02-01T08:12:11.823Z,98.9
2016-02-01T08:13:11.795Z,98.85
2016-02-01T08:14:11.783Z,98.94
2016-02-01T08:15:11.753Z,99.13
2016-02-01T08:16:11.741Z,99.23
2016-02-01T08:17:11.712Z,98.94
2016-02-01T08:18:11.684Z,99.04
2016-02-01T08:19:11.672Z,98.85
2016-02-01T08:20:11.644Z,99.04
2016-02-01T08:21:11.632Z,99.23
2016-02-01T08:22:11.602Z,98.94
2016-02-01T08:23:11.591Z,98.85
2016-02-01T08:24:11.563Z,99.32
2016-02-01T08:25:11.533Z,99.18
2016-02-01T08:26:11.521Z,98.94
2016-02-01T08:27:11.489Z,99.23
2016-02-01T08:28:11.477Z,99.04
2016-02-01T08:29:11.464Z,98.85
2016-02-01T08:30:11.435Z,98.85
2016-02-01T08:31:11.407Z,99.32
2016-02-01T08:32:11.398Z,99.27
2016-02-01T08:33:11.369Z,98.94
2016-02-01T08:34:11.340Z,98.85
2016-02-01T08:35:11.328Z,98.85
2016-02-01T08:36:11.346Z,98.8
2016-02-01T08:37:11.287Z,98.85
2016-02-01T08:38:11.259Z,98.85
2016-02-01T08:39:11.246Z,98.94
2016-02-01T08:40:11.218Z,98.75
2016-02-01T08:41:11.190Z,98.66
2016-02-01T08:49:11.074Z,98.94
2016-02-01T08:50:11.013Z,98.66
2016-02-01T08:51:10.985Z,98.47
2016-02-01T08:52:10.972Z,98.75
2016-02-01T08:53:10.944Z,98.75
2016-02-01T08:54:10.916Z,99.04
2016-02-01T08:55:10.905Z,98.75
2016-02-01T08:56:10.876Z,98.75
2016-02-01T08:57:10.863Z,99.23
2016-02-01T08:58:10.835Z,99.13
2016-02-01T08:59:19.856Z,98.94
2016-02-01T09:00:10.794Z,99.08
2016-02-01T09:01:10.782Z,99.04
2016-02-01T09:02:10.752Z,98.47
2016-02-01T09:03:10.740Z,98.94
2016-02-01T09:04:10.728Z,98.85
2016-02-01T09:05:10.683Z,98.94
2016-02-01T09:06:10.671Z,99.04
2016-02-01T09:07:10.642Z,99.04
2016-02-01T09:08:10.629Z,99.04
2016-02-01T09:09:10.602Z,98.9
2016-02-01T09:10:10.590Z,98.75
2016-02-01T09:11:10.561Z,99.04
2016-02-01T09:12:10.548Z,99.04
2016-02-01T09:13:10.535Z,99.13
2016-02-01T09:14:10.507Z,99.04
2016-02-01T09:15:10.479Z,98.99
2016-02-01T09:16:10.451Z,99.13
2016-02-01T09:17:10.437Z,99.13
2016-02-01T09:18:10.410Z,98.8
2016-02-01T09:19:10.395Z,98.85
2016-02-01T09:20:10.375Z,98.94
2016-02-01T09:21:10.346Z,99.13
2016-02-01T09:22:10.339Z,98.8
2016-02-01T09:23:10.309Z,98.8
2016-02-01T09:24:10.281Z,99.13
2016-02-01T09:25:10.273Z,98.99
2016-02-01T09:26:13.848Z,99.08
2016-02-01T09:27:10.226Z,98.99
2016-02-01T09:28:10.213Z,99.08
2016-02-01T09:29:10.187Z,99.08
2016-02-01T09:30:10.159Z,99.08
2016-02-01T09:31:10.141Z,98.9
2016-02-01T09:32:10.099Z,98.8
2016-02-01T09:33:10.071Z,98.9
2016-02-01T09:34:10.030Z,98.8
2016-02-01T09:35:09.987Z,98.9
2016-02-01T09:36:09.966Z,98.8
2016-02-01T09:37:09.948Z,98.51
2016-02-01T09:38:09.915Z,98.7
2016-02-01T09:39:09.881Z,98.9
2016-02-01T09:40:09.863Z,98.9
2016-02-01T09:41:09.836Z,98.9
2016-02-01T09:42:09.821Z,98.8
2016-02-01T09:43:09.791Z,99.18
2016-02-01T09:44:09.776Z,98.51
2016-02-01T09:45:09.746Z,98.42
2016-02-01T09:46:09.717Z,98.7
2016-02-01T09:47:09.707Z,98.42
2016-02-01T09:48:09.880Z,98.8
2016-02-01T09:49:09.664Z,98.51
2016-02-01T09:50:09.646Z,98.99
2016-02-01T09:51:09.617Z,98.99
2016-02-01T09:52:09.589Z,98.99
2016-02-01T09:53:09.575Z,98.61
2016-02-01T09:54:09.563Z,99.08
2016-02-01T09:55:09.535Z,98.9
2016-02-01T09:56:09.505Z,98.99
2016-02-01T09:57:09.493Z,99.08
2016-02-01T09:58:09.464Z,98.99
2016-02-01T09:59:09.467Z,98.9
2016-02-01T10:00:09.502Z,98.42
2016-02-01T10:01:09.460Z,98.8
2016-02-01T10:02:09.399Z,98.61
2016-02-01T10:03:09.371Z,98.8
2016-02-01T10:04:09.343Z,98.9
2016-02-01T10:05:09.314Z,98.61
2016-02-01T10:06:09.302Z,98.9
2016-02-01T10:07:09.274Z,98.03
2016-02-01T10:08:09.260Z,98.32
2016-02-01T10:09:09.232Z,98.32
2016-02-01T10:10:09.224Z,98.42
2016-02-01T10:11:09.195Z,98.51
2016-02-01T10:12:09.182Z,98.32
2016-02-01T10:13:09.154Z,98.22
2016-02-01T10:14:09.125Z,98.13
2016-02-01T10:15:09.112Z,98.51
2016-02-01T10:16:09.115Z,98.42
2016-02-01T10:17:09.148Z,98.22
2016-02-01T10:18:09.042Z,98.22
2016-02-01T10:19:09.030Z,98.42
2016-02-01T10:20:09.002Z,98.42
2016-02-01T10:21:09.004Z,98.42
2016-02-01T10:22:08.962Z,98.51
2016-02-01T10:23:08.934Z,98.32
2016-02-01T10:24:08.952Z,98.32
2016-02-01T10:25:08.940Z,98.42
2016-02-01T10:26:08.878Z,98.32
2016-02-01T10:27:08.849Z,98.13
2016-02-01T10:28:08.836Z,98.32
2016-02-01T10:29:08.808Z,98.42
2016-02-01T10:30:08.795Z,98.32
2016-02-01T10:31:08.769Z,98.51
2016-02-01T10:32:08.757Z,98.22
2016-02-01T10:33:08.727Z,98.13
2016-02-01T10:34:08.715Z,98.42
2016-02-01T10:35:08.687Z,98.51
2016-02-01T10:36:08.654Z,98.22
2016-02-01T10:37:08.646Z,98.32
2016-02-01T10:38:08.618Z,98.42
2016-02-01T10:39:08.653Z,98.03
2016-02-01T10:40:08.907Z,98.32
2016-02-01T10:41:08.550Z,98.8
2016-02-01T10:42:08.522Z,98.61
2016-02-01T10:43:08.509Z,98.03
2016-02-01T10:44:08.502Z,98.32
2016-02-01T10:45:08.459Z,98.32
2016-02-01T10:46:08.445Z,98.99
2016-02-01T10:47:08.417Z,98.61
2016-02-01T10:48:08.404Z,98.9
2016-02-01T10:49:08.390Z,98.8
2016-02-01T10:50:08.362Z,98.42
2016-02-01T10:51:08.346Z,98.61
2016-02-01T10:52:08.317Z,98.03
2016-02-01T10:53:08.304Z,98.9
2016-02-01T10:54:08.276Z,98.7
2016-02-01T10:55:08.247Z,98.32
2016-02-01T10:56:08.222Z,98.32
2016-02-01T10:57:08.224Z,98.61
2016-02-01T10:58:08.196Z,98.8
2016-02-01T10:59:08.167Z,98.51
2016-02-01T11:00:08.140Z,98.99
2016-02-01T11:01:08.127Z,98.8
2016-02-01T11:02:08.098Z,99.08
2016-02-01T11:03:08.164Z,98.8
2016-02-01T11:04:08.056Z,99.08
2016-02-01T11:05:08.044Z,98.9
2016-02-01T11:06:08.094Z,98.51
2016-02-01T11:07:08.003Z,98.42
2016-02-01T11:08:07.974Z,98.8
2016-02-01T11:09:07.960Z,98.8
2016-02-01T11:10:07.932Z,98.8
2016-02-01T11:11:07.904Z,98.8
2016-02-01T11:12:07.893Z,98.61
2016-02-01T11:13:07.865Z,98.61
2016-02-01T11:14:07.851Z,98.61
2016-02-01T11:15:07.823Z,98.8
2016-02-01T11:16:07.798Z,98.8
2016-02-01T11:17:07.785Z,98.9
2016-02-01T11:18:07.757Z,98.42
2016-02-01T11:19:07.744Z,98.61
2016-02-01T11:20:07.716Z,99.04
2016-02-01T11:21:07.690Z,98.99
2016-02-01T11:22:07.678Z,98.9
2016-02-01T11:23:07.666Z,98.99
2016-02-01T11:24:07.638Z,98.94
2016-02-01T11:25:07.610Z,99.04
2016-02-01T11:26:07.597Z,98.99
2016-02-01T11:27:07.568Z,99.08
2016-02-01T11:28:07.539Z,99.08
2016-02-01T11:29:07.541Z,99.04
2016-02-01T11:30:07.498Z,99.08
2016-02-01T11:31:07.485Z,99.08
2016-02-01T11:32:07.460Z,99.08
2016-02-01T11:33:07.430Z,99.18
2016-02-01T11:34:07.433Z,99.08
2016-02-01T11:35:07.390Z,99.18
2016-02-01T11:36:07.376Z,98.99
2016-02-01T11:37:07.349Z,99.08
2016-02-01T11:38:07.335Z,98.99
2016-02-01T11:39:07.308Z,98.42
2016-02-01T11:40:07.278Z,98.51
2016-02-01T11:41:07.267Z,98.42
2016-02-01T11:42:07.241Z,98.42
2016-02-01T11:43:07.214Z,98.51
2016-02-01T11:44:07.201Z,98.7
2016-02-01T11:45:07.188Z,98.8
2016-02-01T11:46:07.160Z,98.7
2016-02-01T11:47:07.130Z,98.61
2016-02-01T11:48:07.119Z,98.61
2016-02-01T11:49:07.090Z,98.7
2016-02-01T11:50:07.077Z,98.8
2016-02-01T11:51:07.048Z,98.8
2016-02-01T11:52:07.035Z,98.61
2016-02-01T11:53:07.005Z,98.03
2016-02-01T11:54:06.977Z,98.42
2016-02-01T11:55:06.963Z,98.32
2016-02-01T11:56:06.935Z,98.32
2016-02-01T11:57:06.925Z,98.42
2016-02-01T11:58:06.896Z,98.13
2016-02-01T11:59:06.883Z,98.42
2016-02-01T12:00:06.855Z,98.42
2016-02-01T12:01:06.842Z,98.32
2016-02-01T12:02:06.814Z,98.51
2016-02-01T12:03:06.786Z,98.42
2016-02-01T12:04:06.773Z,98.13
2016-02-01T12:05:06.744Z,98.13
2016-02-01T12:06:06.731Z,98.32
2016-02-01T12:07:06.705Z,98.61
2016-02-01T12:08:06.677Z,98.61
2016-02-01T12:09:06.664Z,98.13
2016-02-01T12:10:06.636Z,98.32
2016-02-01T12:11:06.622Z,98.42
2016-02-01T12:12:06.594Z,98.32
2016-02-01T12:13:06.582Z,98.32
2016-02-01T12:14:06.554Z,98.8
2016-02-01T12:15:06.525Z,98.7
2016-02-01T12:16:06.512Z,98.03
2016-02-01T12:17:06.484Z,98.61
2016-02-01T12:18:06.473Z,98.32
2016-02-01T12:19:06.445Z,98.32
2016-02-01T12:20:06.431Z,98.13
2016-02-01T12:21:06.403Z,98.13
2016-02-01T12:22:06.375Z,98.32
2016-02-01T12:23:06.365Z,98.13
2016-02-01T12:24:06.346Z,98.42
2016-02-01T12:25:06.320Z,98.22
2016-02-01T12:26:06.355Z,98.8
2016-02-01T12:27:06.279Z,98.32
2016-02-01T12:28:06.250Z,98.03
2016-02-01T12:29:06.238Z,98.8
2016-02-01T12:30:06.209Z,98.51
2016-02-01T12:31:06.211Z,99.18
2016-02-01T12:32:06.167Z,99.08
2016-02-01T12:33:06.171Z,99.08
2016-02-01T12:34:06.126Z,99.08
2016-02-01T12:35:06.097Z,98.99
2016-02-01T12:36:06.084Z,98.99
2016-02-01T12:37:06.056Z,99.08
2016-02-01T12:38:06.043Z,98.9
2016-02-01T12:39:06.016Z,98.9
2016-02-01T12:40:06.002Z,98.8
2016-02-01T12:41:06.067Z,98.9
2016-02-01T12:42:05.961Z,98.7
2016-02-01T12:43:05.932Z,98.7
2016-02-01T12:44:05.920Z,98.9
2016-02-01T12:45:05.891Z,98.61
2016-02-01T12:46:05.878Z,98.9
2016-02-01T12:47:05.849Z,99.18
2016-02-01T12:48:05.824Z,98.61
2016-02-01T12:49:05.812Z,98.8
2016-02-01T12:50:05.784Z,98.9
2016-02-01T12:51:05.770Z,99.08
2016-02-01T12:52:05.743Z,98.8
2016-02-01T12:53:05.794Z,98.99
2016-02-01T12:54:05.701Z,98.8
2016-02-01T12:55:05.673Z,98.99
2016-02-01T12:56:05.659Z,99.08
2016-02-01T12:57:05.647Z,99.08
2016-02-01T12:58:05.618Z,98.9
2016-02-01T13:05:05.465Z,98.8
2016-02-01T13:27:31.853Z,99.08
2016-02-01T13:28:31.824Z,98.99
2016-02-01T13:29:31.812Z,98.99
2016-02-01T13:30:31.783Z,98.99
2016-02-01T13:31:31.770Z,98.99